DRI-NNSC Building Weather observations

Data are for 10 minute period ending at time listed.
 Day   Time   Solar   Ave.   Ave.  Ave.  Vector  Max.   Baro.   Total    
  of    of     Rad.   Air    Rel.  Wind   Wind   Wind  Press.  Precip.   
Year   Day            Temp.  Hum.  Speed  Dir.   Gust                    
2014   (PST)  Kw/m2    F      %     mph   deg.    mph    mb.     in.     
-------------------------------------------------------------------------
 207   21:20   0.00   78.5    12    5.1     3      8   852.6    0.00 
 207   21:30   0.00   79.9    11    5.9   321     12   852.7    0.00 
 207   21:40   0.00   79.9    11    4.2   333      9   852.7    0.00 
 207   21:50   0.00   78.7    13    5.1    38      8   852.7    0.00 
 207   22:00   0.00   77.8    13    4.9     6      8   852.7    0.00 
 207   22:10   0.00   77.5    14    7.5   344     12   852.6    0.00 
 207   22:20   0.00   77.0    15    7.0   334     12   852.5    0.00 
 207   22:30   0.00   76.4    16    6.5   334     12   852.5    0.00 
 207   22:40   0.00   76.3    16    7.7   337     13   852.5    0.00 
 207   22:50   0.00   75.4    16    5.2   332      9   852.5    0.00 
 207   23:00   0.00   75.3    15    4.4   337      9   852.5    0.00 
 207   23:10   0.00   75.3    15    4.4   328      7   852.6    0.00 
 207   23:20   0.00   75.1    14    3.1   100      8   852.7    0.00 
 207   23:30   0.00   74.0    16    1.1    82      2   852.7    0.00 
 207   23:40   0.00   74.1    16    1.1   277      3   852.6    0.00 
 207   23:50   0.00   73.3    17    2.8   302      6   852.6    0.00 
 208    0:00   0.00   72.5    20    4.4   310      8   852.7    0.00 
 208    0:10   0.00   72.3    20    4.9   309     10   852.7    0.00 
 208    0:20   0.00   72.0    20    4.2   325      8   852.7    0.00 
 208    0:30   0.00   72.7    18    4.7   327      8   852.7    0.00 
 208    0:40   0.00   72.9    18    5.4   331     10   852.7    0.00 
 208    0:50   0.00   73.1    19    5.8   334     11   852.7    0.00 
 208    1:00   0.00   72.3    20    5.3   316     11   852.8    0.00 
 208    1:10   0.00   71.4    20    5.4   321      9   852.9    0.00 
 208    1:20   0.00   72.3    19    4.4   321      8   853.0    0.00 
 208    1:30   0.00   72.6    20    5.0   315      7   853.0    0.00 
 208    1:40   0.00   71.4    22    5.0   314      7   852.9    0.00 
 208    1:50   0.00   70.1    23    4.7   312      7   852.9    0.00 
 208    2:00   0.00   70.1    23    4.9   307      8   852.8    0.00 
 208    2:10   0.00   69.3    24    4.3   325      7   852.8    0.00 
 208    2:20   0.00   69.9    24    2.8   338      7   852.9    0.00 
 208    2:30   0.00   69.2    25    1.5   277      4   852.9    0.00 
 208    2:40   0.00   68.3    26    1.1   240      3   852.9    0.00 
 208    2:50   0.00   67.9    26    2.7   278      5   852.8    0.00 
 208    3:00   0.00   66.7    26    3.8   329      9   852.8    0.00 
 208    3:10   0.00   67.0    26    6.6   329     11   852.6    0.00 
 208    3:20   0.00   68.0    24    6.6   323     11   852.6    0.00 
 208    3:30   0.00   69.0    23    5.6   324     11   852.6    0.00 
 208    3:40   0.00   69.4    21    4.1   333      6   852.7    0.00 
 208    3:50   0.00   69.5    21    3.4   345      5   852.6    0.00 
 208    4:00   0.00   69.9    21    1.5   335      3   852.5    0.00 
 208    4:10   0.00   68.3    23    1.8   318      5   852.5    0.00 
 208    4:20   0.00   66.9    25    2.3   309      5   852.7    0.00 
 208    4:30   0.00   65.3    26    3.5   333      6   852.8    0.00 
 208    4:40   0.00   65.8    26    7.4   335     11   852.6    0.00 
 208    4:50   0.00   66.1    26    6.3   321     10   852.5    0.00 
 208    5:00   0.00   66.1    26    4.0   259      7   852.7    0.00 
 208    5:10   0.01   64.8    27    2.8   285      6   852.7    0.00 
 208    5:20   0.02   65.9    26    3.6   313     10   852.7    0.00 
 208    5:30   0.04   65.0    27    2.6   222      7   852.9    0.00 
 208    5:40   0.06   65.3    27    4.1   316      7   853.1    0.00 
 208    5:50   0.07   67.6    24    5.7   330     10   853.1    0.00 
 208    6:00   0.13   68.4    24    5.1   302      8   853.1    0.00 
 208    6:10   0.15   67.9    25    4.0   300      7   853.1    0.00 
 208    6:20   0.10   68.4    24    2.8   310      5   853.2    0.00 
 208    6:30   0.15   69.2    23    2.1   289      4   853.3    0.00 
 208    6:40   0.19   70.2    22    3.1   310      5   853.3    0.00 
 208    6:50   0.25   71.5    21    2.9   284      5   853.4    0.00 
 208    7:00   0.28   72.4    21    2.8   261      5   853.4    0.00 
 208    7:10   0.31   72.7    22    3.3   286      6   853.5    0.00 
 208    7:20   0.20   72.8    22    2.2   215      4   853.6    0.00 
 208    7:30   0.19   71.5    24    2.4   170      4   853.7    0.00 
 208    7:40   0.37   71.9    24    2.1   187      4   853.8    0.00 
 208    7:50   0.49   73.6    23    2.1   217      5   853.7    0.00 
 208    8:00   0.50   75.7    19    2.3   244      5   853.7    0.00 
 208    8:10   0.35   75.4    20    3.9   175      8   853.8    0.00 
 208    8:20   0.46   75.1    22    3.0   162      7   853.7    0.00 
 208    8:30   0.62   76.9    21    3.7   157      7   853.7    0.00 
 208    8:40   0.51   77.0    21    3.8   153      7   853.7    0.00 
 208    8:50   0.66   78.0    20    2.6   140      5   853.7    0.00 
 208    9:00   0.68   79.2    18    3.0   150      6   853.7    0.00 
 208    9:10   0.60   79.6    18    3.1   162      6   853.6    0.00 
 208    9:20   0.59   79.5    18    3.3   164      7   853.6    0.00 
 208    9:30   0.27   78.9    18    5.2   129      9   853.7    0.00 
 208    9:40   0.29   77.7    19    3.9   113      8   853.5    0.00 
 208    9:50   0.78   79.6    18    3.4   286      6   853.1    0.00 
 208   10:00   0.77   82.8    15    2.4   257      6   853.2    0.00 
 208   10:10   0.75   82.0    15    2.4   215      6   853.2    0.00 
 208   10:20   0.84   84.5    14    2.2   158      5   853.1    0.00 
 208   10:30   0.87   84.8    14    3.5   156      7   853.0    0.00 
 208   10:40   0.90   85.2    14    3.8   158      9   853.0    0.00 
 208   10:50   0.92   85.7    14    4.5   166      9   853.0    0.00 
 208   11:00   0.97   85.4    14    3.4   256      8   852.9    0.00 
 208   11:10   0.90   86.5    13    2.2   246      8   852.8    0.00 
 208   11:20   0.92   87.6    13    4.7   194     10   852.7    0.00 
 208   11:30   0.49   87.4    13    3.4   164      7   852.6    0.00 
 208   11:40   0.95   87.5    13    4.6   146      8   852.6    0.00 
 208   11:50   1.01   88.6    12    3.4   140      8   852.5    0.00 
 208   12:00   0.72   88.7    12    4.8   146     12   852.5    0.00 
 208   12:10   0.92   88.8    11    6.1   131     10   852.3    0.00 
 208   12:20   0.90   89.1    11    4.7   128     10   852.3    0.00 
 208   12:30   0.82   89.4    11    6.2   115     10   852.2    0.00 
 208   12:40   0.55   88.5    11    6.4   122     12   852.2    0.00 
 208   12:50   0.43   88.4    10    3.9    60      8   852.1    0.00 
 208   13:00   0.84   89.3    10    3.1   123      6   851.9    0.00 
 208   13:10   0.94   90.2    10    3.5   286      9   851.9    0.00 
 208   13:20   0.94   90.8    10    3.4   158      8   851.8    0.00 
 208   13:30   0.94   92.0     9    3.9   114      8   851.6    0.00 
 208   13:40   0.94   91.2     9    6.5   138     12   851.5    0.00 
 208   13:50   0.95   91.5     9    3.8   124     10   851.5    0.00 
 208   14:00   0.96   92.3     9    4.1   329      8   851.7    0.00 
 208   14:10   0.91   92.7     9    4.8   269     11   851.3    0.00 
 208   14:20   0.93   92.1     9    7.1   299     13   851.4    0.00 
 208   14:30   0.87   91.7     9    3.0    24      7   851.4    0.00 
 208   14:40   0.84   92.4     9    3.4   102      8   851.4    0.00 
 208   14:50   0.72   93.5     8    3.9    68      9   851.2    0.00 
 208   15:00   0.65   92.8     8    6.8   320     20   851.1    0.00 
 208   15:10   0.64   92.1     8    3.9   321      8   851.0    0.00 
 208   15:20   0.52   91.5     8    3.2   150      7   851.0    0.00 
 208   15:30   0.26   91.4     8    8.4   303     16   850.9    0.00 
 208   15:40   0.23   90.4     8    7.6   278     14   850.9    0.00 
 208   15:50   0.28   90.2     8    9.9   300     18   851.0    0.00 
 208   16:00   0.30   90.1     9    9.5   281     18   851.1    0.00 
 208   16:10   0.28   89.9     9    9.3   274     17   851.0    0.00 
 208   16:20   0.28   90.2     9    8.7   254     18   850.9    0.00 
 208   16:30   0.26   89.9    10    8.3   269     17   851.0    0.00 
 208   16:40   0.23   89.3    10    8.9   280     15   851.1    0.00 
 208   16:50   0.18   89.1    11    8.1   291     16   851.2    0.00 
 208   17:00   0.13   88.5    11    9.8   304     16   851.3    0.00 
 208   17:10   0.12   88.3    11   10.0   307     16   851.3    0.00 
 208   17:20   0.10   88.0    12    9.2   309     19   851.3    0.00 
 208   17:30   0.10   87.8    12   10.6   306     19   851.2    0.00 
 208   17:40   0.10   87.5    12   11.1   319     20   851.2    0.00 
 208   17:50   0.10   87.3    12   11.3   317     20   851.3    0.00 
 208   18:00   0.08   86.5    11   11.9   316     21   851.4    0.00 
 208   18:10   0.07   85.7    11   13.0   320     22   851.5    0.00 
 208   18:20   0.05   85.3    11   12.3   314     21   851.6    0.00 
 208   18:30   0.04   85.2    11   11.7   312     20   851.6    0.00 
 208   18:40   0.03   85.0    11    9.8   317     18   851.7    0.00 
 208   18:50   0.03   84.8    11    8.3   327     14   851.7    0.00 
 208   19:00   0.01   84.5    12    9.5   321     15   851.7    0.00 
 208   19:10   0.01   84.3    12    8.8   322     14   851.9    0.00 
 208   19:20   0.01   84.1    12    8.6   315     15   851.9    0.00 
 208   19:30   0.00   83.9    12    8.5   319     14   852.0    0.00 
 208   19:40   0.00   83.4    12    7.9   326     13   852.1    0.00 
 208   19:50   0.00   82.8    12    8.1   334     15   852.1    0.00 
 208   20:00   0.00   82.5    13   10.0   321     16   852.2    0.00 
 208   20:10   0.00   81.6    13    8.5   331     16   852.4    0.00 
 208   20:20   0.00   80.7    14    8.1   328     13   852.5    0.00 
 208   20:30   0.00   80.3    14    7.8   324     13   852.6    0.00 
 208   20:40   0.00   79.9    14    7.7   314     13   852.7    0.00 
 208   20:50   0.00   79.9    14    7.1   308     12   852.7    0.00 
 208   21:00   0.00   79.7    14    7.2   315     14   852.8    0.00 
 208   21:10   0.00   79.8    14    5.6   304     11   853.0    0.00 

Return to NNSC graphs page.


Western Regional Climate Center,wrcc@dri.edu